sensor_id;sensor_type;location;lat;lon;timestamp;temperature;humidity
22442;DHT22;11388;54.456;9.752;2023-05-20T00:00:30;12.30;99.90
22442;DHT22;11388;54.456;9.752;2023-05-20T00:02:59;12.20;99.90
22442;DHT22;11388;54.456;9.752;2023-05-20T00:05:36;12.30;99.90
22442;DHT22;11388;54.456;9.752;2023-05-20T00:10:58;12.20;99.90
22442;DHT22;11388;54.456;9.752;2023-05-20T00:19:53;12.10;99.90
22442;DHT22;11388;54.456;9.752;2023-05-20T00:22:20;12.10;99.90
22442;DHT22;11388;54.456;9.752;2023-05-20T00:24:49;12.10;99.90
22442;DHT22;11388;54.456;9.752;2023-05-20T00:27:18;12.10;99.90
22442;DHT22;11388;54.456;9.752;2023-05-20T00:29:46;12.10;99.90
22442;DHT22;11388;54.456;9.752;2023-05-20T00:32:18;12.00;99.90
22442;DHT22;11388;54.456;9.752;2023-05-20T00:34:59;12.00;99.90
22442;DHT22;11388;54.456;9.752;2023-05-20T00:37:37;11.90;99.90
22442;DHT22;11388;54.456;9.752;2023-05-20T00:40:03;11.90;99.90
22442;DHT22;11388;54.456;9.752;2023-05-20T00:42:30;11.90;99.90
22442;DHT22;11388;54.456;9.752;2023-05-20T00:44:55;11.80;99.90
22442;DHT22;11388;54.456;9.752;2023-05-20T00:47:30;11.80;99.90
22442;DHT22;11388;54.456;9.752;2023-05-20T00:49:58;11.80;99.90
22442;DHT22;11388;54.456;9.752;2023-05-20T00:52:24;11.70;99.90
22442;DHT22;11388;54.456;9.752;2023-05-20T00:54:52;11.70;99.90
22442;DHT22;11388;54.456;9.752;2023-05-20T00:57:18;11.70;99.90
22442;DHT22;11388;54.456;9.752;2023-05-20T00:59:45;11.70;99.90
22442;DHT22;11388;54.456;9.752;2023-05-20T01:02:11;11.70;99.90
22442;DHT22;11388;54.456;9.752;2023-05-20T01:04:37;11.70;99.90
22442;DHT22;11388;54.456;9.752;2023-05-20T01:07:04;11.60;99.90
22442;DHT22;11388;54.456;9.752;2023-05-20T01:09:31;11.60;99.90
22442;DHT22;11388;54.456;9.752;2023-05-20T01:12:25;11.60;99.90
22442;DHT22;11388;54.456;9.752;2023-05-20T01:15:00;11.60;99.90
22442;DHT22;11388;54.456;9.752;2023-05-20T01:17:31;11.60;99.90
22442;DHT22;11388;54.456;9.752;2023-05-20T01:20:08;11.60;99.90
22442;DHT22;11388;54.456;9.752;2023-05-20T01:22:37;11.50;99.90
22442;DHT22;11388;54.456;9.752;2023-05-20T01:25:03;11.60;99.90
22442;DHT22;11388;54.456;9.752;2023-05-20T01:27:30;11.50;99.90
22442;DHT22;11388;54.456;9.752;2023-05-20T01:29:56;11.60;99.90
22442;DHT22;11388;54.456;9.752;2023-05-20T01:32:30;11.50;99.90
22442;DHT22;11388;54.456;9.752;2023-05-20T01:34:57;11.50;99.90
22442;DHT22;11388;54.456;9.752;2023-05-20T01:37:24;11.50;99.90
22442;DHT22;11388;54.456;9.752;2023-05-20T01:39:51;11.50;99.90
22442;DHT22;11388;54.456;9.752;2023-05-20T01:42:17;11.40;99.90
22442;DHT22;11388;54.456;9.752;2023-05-20T01:44:48;11.40;99.90
22442;DHT22;11388;54.456;9.752;2023-05-20T01:47:16;11.40;99.90
22442;DHT22;11388;54.456;9.752;2023-05-20T01:49:42;11.30;99.90
22442;DHT22;11388;54.456;9.752;2023-05-20T01:52:10;11.30;99.90
22442;DHT22;11388;54.456;9.752;2023-05-20T01:54:36;11.20;99.90
22442;DHT22;11388;54.456;9.752;2023-05-20T01:57:02;11.20;99.90
22442;DHT22;11388;54.456;9.752;2023-05-20T01:59:28;11.20;99.90
22442;DHT22;11388;54.456;9.752;2023-05-20T02:01:53;11.20;99.90
22442;DHT22;11388;54.456;9.752;2023-05-20T02:04:19;11.20;99.90
22442;DHT22;11388;54.456;9.752;2023-05-20T02:06:47;11.20;99.90
22442;DHT22;11388;54.456;9.752;2023-05-20T02:09:21;11.20;99.90
22442;DHT22;11388;54.456;9.752;2023-05-20T02:11:47;11.20;99.90
22442;DHT22;11388;54.456;9.752;2023-05-20T02:14:18;11.10;99.90
22442;DHT22;11388;54.456;9.752;2023-05-20T02:16:45;11.20;99.90
22442;DHT22;11388;54.456;9.752;2023-05-20T02:19:14;11.10;99.90
22442;DHT22;11388;54.456;9.752;2023-05-20T02:21:44;11.10;99.90
22442;DHT22;11388;54.456;9.752;2023-05-20T02:24:15;11.10;99.90
22442;DHT22;11388;54.456;9.752;2023-05-20T02:26:41;11.10;99.90
22442;DHT22;11388;54.456;9.752;2023-05-20T02:29:15;11.10;99.90
22442;DHT22;11388;54.456;9.752;2023-05-20T02:31:47;11.10;99.90
22442;DHT22;11388;54.456;9.752;2023-05-20T02:34:16;11.10;99.90
22442;DHT22;11388;54.456;9.752;2023-05-20T02:36:45;11.10;99.90
22442;DHT22;11388;54.456;9.752;2023-05-20T02:39:13;11.00;99.90
22442;DHT22;11388;54.456;9.752;2023-05-20T02:41:43;11.00;99.90
22442;DHT22;11388;54.456;9.752;2023-05-20T02:44:34;11.00;99.90
22442;DHT22;11388;54.456;9.752;2023-05-20T02:47:09;11.00;99.90
22442;DHT22;11388;54.456;9.752;2023-05-20T02:49:35;11.00;99.90
22442;DHT22;11388;54.456;9.752;2023-05-20T02:52:09;11.00;99.90
22442;DHT22;11388;54.456;9.752;2023-05-20T02:54:40;11.00;99.90
22442;DHT22;11388;54.456;9.752;2023-05-20T02:57:08;11.00;99.90
22442;DHT22;11388;54.456;9.752;2023-05-20T02:59:34;10.90;99.90
22442;DHT22;11388;54.456;9.752;2023-05-20T03:02:19;10.90;99.90
22442;DHT22;11388;54.456;9.752;2023-05-20T03:04:52;10.90;99.90
22442;DHT22;11388;54.456;9.752;2023-05-20T03:07:19;10.90;99.90
22442;DHT22;11388;54.456;9.752;2023-05-20T03:09:48;10.90;99.90
22442;DHT22;11388;54.456;9.752;2023-05-20T03:12:26;10.80;99.90
22442;DHT22;11388;54.456;9.752;2023-05-20T03:15:03;10.80;99.90
22442;DHT22;11388;54.456;9.752;2023-05-20T03:17:32;10.80;99.90
22442;DHT22;11388;54.456;9.752;2023-05-20T03:19:59;10.80;99.90
22442;DHT22;11388;54.456;9.752;2023-05-20T03:22:29;10.90;99.90
22442;DHT22;11388;54.456;9.752;2023-05-20T03:27:54;10.80;99.90
22442;DHT22;11388;54.456;9.752;2023-05-20T03:33:56;10.90;99.90
22442;DHT22;11388;54.456;9.752;2023-05-20T03:36:42;10.90;99.90
22442;DHT22;11388;54.456;9.752;2023-05-20T03:39:10;10.90;99.90
22442;DHT22;11388;54.456;9.752;2023-05-20T03:45:21;10.90;99.90
22442;DHT22;11388;54.456;9.752;2023-05-20T03:48:05;11.00;99.90
22442;DHT22;11388;54.456;9.752;2023-05-20T03:53:29;11.00;99.90
22442;DHT22;11388;54.456;9.752;2023-05-20T03:56:12;11.00;99.90
22442;DHT22;11388;54.456;9.752;2023-05-20T03:58:41;11.00;99.90
22442;DHT22;11388;54.456;9.752;2023-05-20T04:01:10;11.00;99.90
22442;DHT22;11388;54.456;9.752;2023-05-20T04:03:49;11.00;99.90
22442;DHT22;11388;54.456;9.752;2023-05-20T04:06:23;11.10;99.90
22442;DHT22;11388;54.456;9.752;2023-05-20T04:09:01;11.10;99.90
22442;DHT22;11388;54.456;9.752;2023-05-20T04:11:54;11.10;99.90
22442;DHT22;11388;54.456;9.752;2023-05-20T04:14:25;11.20;99.90
22442;DHT22;11388;54.456;9.752;2023-05-20T04:16:58;11.20;99.90
22442;DHT22;11388;54.456;9.752;2023-05-20T04:19:24;11.20;99.90
22442;DHT22;11388;54.456;9.752;2023-05-20T04:21:52;11.30;99.90
22442;DHT22;11388;54.456;9.752;2023-05-20T04:24:18;11.30;99.90
22442;DHT22;11388;54.456;9.752;2023-05-20T04:26:49;11.40;99.90
22442;DHT22;11388;54.456;9.752;2023-05-20T04:29:15;11.40;99.90
22442;DHT22;11388;54.456;9.752;2023-05-20T04:31:41;11.50;99.90
22442;DHT22;11388;54.456;9.752;2023-05-20T04:34:09;11.50;99.90
22442;DHT22;11388;54.456;9.752;2023-05-20T04:36:35;11.60;99.90
22442;DHT22;11388;54.456;9.752;2023-05-20T04:39:05;11.70;99.90
22442;DHT22;11388;54.456;9.752;2023-05-20T04:41:32;11.70;99.90
22442;DHT22;11388;54.456;9.752;2023-05-20T04:44:00;11.80;99.90
22442;DHT22;11388;54.456;9.752;2023-05-20T04:46:26;11.80;99.90
22442;DHT22;11388;54.456;9.752;2023-05-20T04:48:55;11.90;99.90
22442;DHT22;11388;54.456;9.752;2023-05-20T04:51:32;11.90;99.90
22442;DHT22;11388;54.456;9.752;2023-05-20T04:53:59;11.90;99.90
22442;DHT22;11388;54.456;9.752;2023-05-20T04:56:27;12.10;99.90
22442;DHT22;11388;54.456;9.752;2023-05-20T04:58:54;12.10;99.90
22442;DHT22;11388;54.456;9.752;2023-05-20T05:01:42;12.10;99.90
22442;DHT22;11388;54.456;9.752;2023-05-20T05:04:10;12.20;99.90
22442;DHT22;11388;54.456;9.752;2023-05-20T05:06:38;12.30;99.90
22442;DHT22;11388;54.456;9.752;2023-05-20T05:09:06;12.30;99.90
22442;DHT22;11388;54.456;9.752;2023-05-20T05:11:50;12.40;99.90
22442;DHT22;11388;54.456;9.752;2023-05-20T05:14:24;12.50;99.90
22442;DHT22;11388;54.456;9.752;2023-05-20T05:16:52;12.50;99.90
22442;DHT22;11388;54.456;9.752;2023-05-20T05:19:18;12.60;99.90
22442;DHT22;11388;54.456;9.752;2023-05-20T05:21:44;12.60;99.90
22442;DHT22;11388;54.456;9.752;2023-05-20T05:24:10;12.70;99.90
22442;DHT22;11388;54.456;9.752;2023-05-20T05:26:35;12.70;99.90
22442;DHT22;11388;54.456;9.752;2023-05-20T05:29:01;12.80;99.90
22442;DHT22;11388;54.456;9.752;2023-05-20T05:31:27;12.90;99.90
22442;DHT22;11388;54.456;9.752;2023-05-20T05:33:52;12.90;99.90
22442;DHT22;11388;54.456;9.752;2023-05-20T05:36:18;12.90;99.90
22442;DHT22;11388;54.456;9.752;2023-05-20T05:38:44;13.00;99.90
22442;DHT22;11388;54.456;9.752;2023-05-20T05:41:09;13.00;99.90
22442;DHT22;11388;54.456;9.752;2023-05-20T05:43:35;13.10;99.90
22442;DHT22;11388;54.456;9.752;2023-05-20T05:46:01;13.10;99.90
22442;DHT22;11388;54.456;9.752;2023-05-20T05:48:27;13.20;99.90
22442;DHT22;11388;54.456;9.752;2023-05-20T05:51:15;13.20;99.90
22442;DHT22;11388;54.456;9.752;2023-05-20T05:53:41;13.30;99.90
22442;DHT22;11388;54.456;9.752;2023-05-20T05:56:06;13.30;99.90
22442;DHT22;11388;54.456;9.752;2023-05-20T05:58:32;13.40;99.90
22442;DHT22;11388;54.456;9.752;2023-05-20T06:00:58;13.40;99.90
22442;DHT22;11388;54.456;9.752;2023-05-20T06:03:24;13.40;99.90
22442;DHT22;11388;54.456;9.752;2023-05-20T06:05:50;13.40;99.90
22442;DHT22;11388;54.456;9.752;2023-05-20T06:08:15;13.50;99.90
22442;DHT22;11388;54.456;9.752;2023-05-20T06:10:45;13.60;99.90
22442;DHT22;11388;54.456;9.752;2023-05-20T06:13:11;13.60;99.90
22442;DHT22;11388;54.456;9.752;2023-05-20T06:15:39;13.70;99.90
22442;DHT22;11388;54.456;9.752;2023-05-20T06:25:51;13.80;99.90
22442;DHT22;11388;54.456;9.752;2023-05-20T06:28:17;13.90;99.90
22442;DHT22;11388;54.456;9.752;2023-05-20T06:30:43;13.90;99.90
22442;DHT22;11388;54.456;9.752;2023-05-20T06:33:09;13.90;99.90
22442;DHT22;11388;54.456;9.752;2023-05-20T06:35:35;14.00;99.90
22442;DHT22;11388;54.456;9.752;2023-05-20T06:40:32;13.90;99.90
22442;DHT22;11388;54.456;9.752;2023-05-20T06:42:58;13.90;99.90
22442;DHT22;11388;54.456;9.752;2023-05-20T06:45:23;14.00;99.90
22442;DHT22;11388;54.456;9.752;2023-05-20T06:47:49;14.10;99.90
22442;DHT22;11388;54.456;9.752;2023-05-20T06:50:15;14.10;99.90
22442;DHT22;11388;54.456;9.752;2023-05-20T06:52:41;14.20;99.90
22442;DHT22;11388;54.456;9.752;2023-05-20T06:55:06;14.30;99.90
22442;DHT22;11388;54.456;9.752;2023-05-20T06:57:32;14.40;99.90
22442;DHT22;11388;54.456;9.752;2023-05-20T06:59:58;14.50;99.90
22442;DHT22;11388;54.456;9.752;2023-05-20T07:02:24;14.50;99.90
22442;DHT22;11388;54.456;9.752;2023-05-20T07:04:50;14.60;99.90
22442;DHT22;11388;54.456;9.752;2023-05-20T07:07:15;14.60;99.90
22442;DHT22;11388;54.456;9.752;2023-05-20T07:16:30;14.80;99.90
22442;DHT22;11388;54.456;9.752;2023-05-20T07:18:59;14.90;99.90
22442;DHT22;11388;54.456;9.752;2023-05-20T07:21:50;14.90;99.90
22442;DHT22;11388;54.456;9.752;2023-05-20T07:24:38;15.00;99.90
22442;DHT22;11388;54.456;9.752;2023-05-20T07:27:03;15.10;99.90
22442;DHT22;11388;54.456;9.752;2023-05-20T07:29:29;15.10;99.90
22442;DHT22;11388;54.456;9.752;2023-05-20T07:31:55;15.20;99.90
22442;DHT22;11388;54.456;9.752;2023-05-20T07:34:21;15.10;99.90
22442;DHT22;11388;54.456;9.752;2023-05-20T07:36:47;15.10;99.90
22442;DHT22;11388;54.456;9.752;2023-05-20T07:39:14;15.10;99.90
22442;DHT22;11388;54.456;9.752;2023-05-20T07:41:40;15.20;99.90
22442;DHT22;11388;54.456;9.752;2023-05-20T07:44:06;15.20;99.90
22442;DHT22;11388;54.456;9.752;2023-05-20T07:46:35;15.30;99.90
22442;DHT22;11388;54.456;9.752;2023-05-20T07:52:14;15.40;99.90
22442;DHT22;11388;54.456;9.752;2023-05-20T07:54:41;15.50;99.90
22442;DHT22;11388;54.456;9.752;2023-05-20T07:57:06;15.50;99.90
22442;DHT22;11388;54.456;9.752;2023-05-20T07:59:32;15.50;99.90
22442;DHT22;11388;54.456;9.752;2023-05-20T08:01:58;15.60;99.90
22442;DHT22;11388;54.456;9.752;2023-05-20T08:04:24;15.60;99.90
22442;DHT22;11388;54.456;9.752;2023-05-20T08:09:41;15.70;99.90
22442;DHT22;11388;54.456;9.752;2023-05-20T08:12:07;15.70;99.90
22442;DHT22;11388;54.456;9.752;2023-05-20T08:14:33;15.70;99.90
22442;DHT22;11388;54.456;9.752;2023-05-20T08:16:59;15.70;99.90
22442;DHT22;11388;54.456;9.752;2023-05-20T08:19:24;15.70;99.90
22442;DHT22;11388;54.456;9.752;2023-05-20T08:21:50;15.70;99.90
22442;DHT22;11388;54.456;9.752;2023-05-20T08:24:16;15.80;99.90
22442;DHT22;11388;54.456;9.752;2023-05-20T08:26:42;15.70;99.90
22442;DHT22;11388;54.456;9.752;2023-05-20T08:29:08;15.80;99.90
22442;DHT22;11388;54.456;9.752;2023-05-20T08:31:34;15.80;99.90
22442;DHT22;11388;54.456;9.752;2023-05-20T08:33:59;15.90;99.90
22442;DHT22;11388;54.456;9.752;2023-05-20T08:36:25;15.90;99.90
22442;DHT22;11388;54.456;9.752;2023-05-20T08:38:57;15.90;99.90
22442;DHT22;11388;54.456;9.752;2023-05-20T08:49:50;16.20;99.90
22442;DHT22;11388;54.456;9.752;2023-05-20T08:52:21;16.30;99.90
22442;DHT22;11388;54.456;9.752;2023-05-20T08:54:50;16.40;99.90
22442;DHT22;11388;54.456;9.752;2023-05-20T08:57:17;16.40;99.90
22442;DHT22;11388;54.456;9.752;2023-05-20T08:59:47;16.40;99.90
22442;DHT22;11388;54.456;9.752;2023-05-20T09:02:16;16.50;99.90
22442;DHT22;11388;54.456;9.752;2023-05-20T09:08:16;16.60;99.90
22442;DHT22;11388;54.456;9.752;2023-05-20T09:10:44;16.70;99.90
22442;DHT22;11388;54.456;9.752;2023-05-20T09:13:44;16.70;99.90
22442;DHT22;11388;54.456;9.752;2023-05-20T09:16:16;16.60;99.90
22442;DHT22;11388;54.456;9.752;2023-05-20T09:18:53;16.70;99.90
22442;DHT22;11388;54.456;9.752;2023-05-20T09:21:28;16.60;99.90
22442;DHT22;11388;54.456;9.752;2023-05-20T09:24:24;16.70;99.90
22442;DHT22;11388;54.456;9.752;2023-05-20T09:26:51;16.80;99.90
22442;DHT22;11388;54.456;9.752;2023-05-20T09:29:20;16.90;99.90
22442;DHT22;11388;54.456;9.752;2023-05-20T09:31:46;16.90;99.90
22442;DHT22;11388;54.456;9.752;2023-05-20T09:34:12;17.00;99.90
22442;DHT22;11388;54.456;9.752;2023-05-20T09:36:38;17.00;99.90
22442;DHT22;11388;54.456;9.752;2023-05-20T09:39:08;16.90;99.90
22442;DHT22;11388;54.456;9.752;2023-05-20T09:45:09;17.00;99.90
22442;DHT22;11388;54.456;9.752;2023-05-20T09:47:46;16.90;99.90
22442;DHT22;11388;54.456;9.752;2023-05-20T09:50:13;16.90;99.90
22442;DHT22;11388;54.456;9.752;2023-05-20T09:52:41;17.00;99.90
22442;DHT22;11388;54.456;9.752;2023-05-20T09:55:08;17.00;99.90
22442;DHT22;11388;54.456;9.752;2023-05-20T09:57:37;17.00;99.90
22442;DHT22;11388;54.456;9.752;2023-05-20T10:00:04;17.10;99.90
22442;DHT22;11388;54.456;9.752;2023-05-20T10:02:31;17.20;99.90
22442;DHT22;11388;54.456;9.752;2023-05-20T10:05:00;17.20;99.90
22442;DHT22;11388;54.456;9.752;2023-05-20T10:10:41;17.40;99.90
22442;DHT22;11388;54.456;9.752;2023-05-20T10:13:52;17.30;99.90
22442;DHT22;11388;54.456;9.752;2023-05-20T10:19:34;17.50;99.90
22442;DHT22;11388;54.456;9.752;2023-05-20T10:22:08;17.50;99.90
22442;DHT22;11388;54.456;9.752;2023-05-20T10:24:35;17.40;99.90
22442;DHT22;11388;54.456;9.752;2023-05-20T10:27:03;17.50;99.90
22442;DHT22;11388;54.456;9.752;2023-05-20T10:29:44;17.60;99.90
22442;DHT22;11388;54.456;9.752;2023-05-20T10:32:09;17.60;99.90
22442;DHT22;11388;54.456;9.752;2023-05-20T10:34:49;17.70;99.90
22442;DHT22;11388;54.456;9.752;2023-05-20T10:37:27;17.70;99.90
22442;DHT22;11388;54.456;9.752;2023-05-20T10:40:26;17.60;99.90
22442;DHT22;11388;54.456;9.752;2023-05-20T10:49:40;18.10;99.90
22442;DHT22;11388;54.456;9.752;2023-05-20T11:05:44;19.60;99.90
22442;DHT22;11388;54.456;9.752;2023-05-20T11:08:37;19.50;99.90
22442;DHT22;11388;54.456;9.752;2023-05-20T11:11:32;19.50;99.90
22442;DHT22;11388;54.456;9.752;2023-05-20T11:14:12;19.70;99.90
22442;DHT22;11388;54.456;9.752;2023-05-20T11:16:51;19.70;99.90
22442;DHT22;11388;54.456;9.752;2023-05-20T11:19:47;19.70;99.90
22442;DHT22;11388;54.456;9.752;2023-05-20T11:22:15;19.70;99.90
22442;DHT22;11388;54.456;9.752;2023-05-20T11:24:49;20.10;99.90
22442;DHT22;11388;54.456;9.752;2023-05-20T11:27:18;20.10;99.90
22442;DHT22;11388;54.456;9.752;2023-05-20T11:32:32;20.00;99.90
22442;DHT22;11388;54.456;9.752;2023-05-20T11:36:03;19.90;99.90
22442;DHT22;11388;54.456;9.752;2023-05-20T11:39:14;19.60;99.90
22442;DHT22;11388;54.456;9.752;2023-05-20T11:41:59;19.40;99.90
22442;DHT22;11388;54.456;9.752;2023-05-20T11:48:36;19.50;99.90
22442;DHT22;11388;54.456;9.752;2023-05-20T12:13:48;21.70;99.90
22442;DHT22;11388;54.456;9.752;2023-05-20T12:16:24;21.80;99.90
22442;DHT22;11388;54.456;9.752;2023-05-20T12:22:10;21.90;99.90
22442;DHT22;11388;54.456;9.752;2023-05-20T12:24:41;21.90;99.90
22442;DHT22;11388;54.456;9.752;2023-05-20T12:27:10;22.10;99.90
22442;DHT22;11388;54.456;9.752;2023-05-20T12:29:37;23.20;99.90
22442;DHT22;11388;54.456;9.752;2023-05-20T12:32:03;25.00;98.90
22442;DHT22;11388;54.456;9.752;2023-05-20T12:34:38;26.90;97.00
22442;DHT22;11388;54.456;9.752;2023-05-20T12:37:04;28.70;94.30
22442;DHT22;11388;54.456;9.752;2023-05-20T12:39:43;30.10;89.00
22442;DHT22;11388;54.456;9.752;2023-05-20T12:42:21;31.10;73.20
22442;DHT22;11388;54.456;9.752;2023-05-20T12:44:56;31.80;70.30
22442;DHT22;11388;54.456;9.752;2023-05-20T12:48:01;32.30;66.00
22442;DHT22;11388;54.456;9.752;2023-05-20T12:50:46;33.20;59.10
22442;DHT22;11388;54.456;9.752;2023-05-20T12:53:11;34.70;58.40
22442;DHT22;11388;54.456;9.752;2023-05-20T12:55:41;35.00;56.00
22442;DHT22;11388;54.456;9.752;2023-05-20T12:58:21;35.50;51.80
22442;DHT22;11388;54.456;9.752;2023-05-20T13:00:55;36.10;53.30
22442;DHT22;11388;54.456;9.752;2023-05-20T13:12:47;36.90;46.40
22442;DHT22;11388;54.456;9.752;2023-05-20T13:57:57;39.50;38.10
22442;DHT22;11388;54.456;9.752;2023-05-20T14:28:30;38.90;38.10
22442;DHT22;11388;54.456;9.752;2023-05-20T14:37:13;37.20;38.90
22442;DHT22;11388;54.456;9.752;2023-05-20T14:49:58;30.50;45.70
22442;DHT22;11388;54.456;9.752;2023-05-20T14:52:55;29.00;47.60
22442;DHT22;11388;54.456;9.752;2023-05-20T14:55:21;28.20;49.30
22442;DHT22;11388;54.456;9.752;2023-05-20T15:00:48;26.80;51.50
22442;DHT22;11388;54.456;9.752;2023-05-20T15:03:30;26.60;52.40
22442;DHT22;11388;54.456;9.752;2023-05-20T15:06:02;26.50;51.90
22442;DHT22;11388;54.456;9.752;2023-05-20T15:08:36;26.10;52.80
22442;DHT22;11388;54.456;9.752;2023-05-20T15:11:09;25.90;53.80
22442;DHT22;11388;54.456;9.752;2023-05-20T15:13:40;25.90;52.60
22442;DHT22;11388;54.456;9.752;2023-05-20T15:16:23;25.90;53.00
22442;DHT22;11388;54.456;9.752;2023-05-20T15:18:55;25.40;53.40
22442;DHT22;11388;54.456;9.752;2023-05-20T15:21:21;25.10;53.90
22442;DHT22;11388;54.456;9.752;2023-05-20T15:23:49;24.80;54.10
22442;DHT22;11388;54.456;9.752;2023-05-20T15:26:28;24.50;55.40
22442;DHT22;11388;54.456;9.752;2023-05-20T15:29:11;24.40;54.30
22442;DHT22;11388;54.456;9.752;2023-05-20T15:31:37;24.40;54.80
22442;DHT22;11388;54.456;9.752;2023-05-20T15:34:32;24.20;55.80
22442;DHT22;11388;54.456;9.752;2023-05-20T15:36:58;24.10;56.50
22442;DHT22;11388;54.456;9.752;2023-05-20T15:39:26;24.10;56.10
22442;DHT22;11388;54.456;9.752;2023-05-20T15:41:52;24.10;56.10
22442;DHT22;11388;54.456;9.752;2023-05-20T15:44:18;23.90;56.00
22442;DHT22;11388;54.456;9.752;2023-05-20T15:46:44;23.90;56.00
22442;DHT22;11388;54.456;9.752;2023-05-20T15:49:11;23.60;56.70
22442;DHT22;11388;54.456;9.752;2023-05-20T15:51:38;23.70;56.80
22442;DHT22;11388;54.456;9.752;2023-05-20T15:54:06;23.80;56.50
22442;DHT22;11388;54.456;9.752;2023-05-20T15:56:32;23.80;57.00
22442;DHT22;11388;54.456;9.752;2023-05-20T15:58:58;23.60;56.80
22442;DHT22;11388;54.456;9.752;2023-05-20T16:04:56;23.50;57.80
22442;DHT22;11388;54.456;9.752;2023-05-20T16:07:26;23.30;57.30
22442;DHT22;11388;54.456;9.752;2023-05-20T16:09:57;23.30;57.90
22442;DHT22;11388;54.456;9.752;2023-05-20T16:18:43;24.30;55.50
22442;DHT22;11388;54.456;9.752;2023-05-20T16:21:20;23.60;56.40
22442;DHT22;11388;54.456;9.752;2023-05-20T16:23:49;23.40;57.10
22442;DHT22;11388;54.456;9.752;2023-05-20T16:26:15;23.10;57.30
22442;DHT22;11388;54.456;9.752;2023-05-20T16:28:43;22.90;57.50
22442;DHT22;11388;54.456;9.752;2023-05-20T16:31:12;22.70;58.60
22442;DHT22;11388;54.456;9.752;2023-05-20T16:33:41;22.80;58.90
22442;DHT22;11388;54.456;9.752;2023-05-20T16:36:11;22.90;58.80
22442;DHT22;11388;54.456;9.752;2023-05-20T16:38:40;23.10;58.60
22442;DHT22;11388;54.456;9.752;2023-05-20T16:41:11;23.90;57.80
22442;DHT22;11388;54.456;9.752;2023-05-20T16:43:37;24.20;55.90
22442;DHT22;11388;54.456;9.752;2023-05-20T16:46:06;23.70;55.50
22442;DHT22;11388;54.456;9.752;2023-05-20T16:48:57;23.20;56.50
22442;DHT22;11388;54.456;9.752;2023-05-20T16:51:44;22.80;57.00
22442;DHT22;11388;54.456;9.752;2023-05-20T16:54:16;22.30;58.00
22442;DHT22;11388;54.456;9.752;2023-05-20T16:56:45;22.00;58.80
22442;DHT22;11388;54.456;9.752;2023-05-20T16:59:52;21.70;60.00
22442;DHT22;11388;54.456;9.752;2023-05-20T17:02:20;21.60;60.50
22442;DHT22;11388;54.456;9.752;2023-05-20T17:04:54;21.60;60.40
22442;DHT22;11388;54.456;9.752;2023-05-20T17:07:51;22.00;60.80
22442;DHT22;11388;54.456;9.752;2023-05-20T17:13:53;23.60;56.70
22442;DHT22;11388;54.456;9.752;2023-05-20T17:16:18;22.70;58.10
22442;DHT22;11388;54.456;9.752;2023-05-20T17:22:32;21.40;61.00
22442;DHT22;11388;54.456;9.752;2023-05-20T17:28:40;20.70;64.70
22442;DHT22;11388;54.456;9.752;2023-05-20T17:31:11;20.50;65.40
22442;DHT22;11388;54.456;9.752;2023-05-20T17:34:26;20.70;65.00
22442;DHT22;11388;54.456;9.752;2023-05-20T17:37:22;22.20;63.80
22442;DHT22;11388;54.456;9.752;2023-05-20T18:19:29;18.50;76.90
22442;DHT22;11388;54.456;9.752;2023-05-20T19:22:41;15.60;99.90
22442;DHT22;11388;54.456;9.752;2023-05-20T19:26:06;15.60;99.90
22442;DHT22;11388;54.456;9.752;2023-05-20T20:20:00;14.90;99.90
22442;DHT22;11388;54.456;9.752;2023-05-20T22:43:32;14.40;99.90
22442;DHT22;11388;54.456;9.752;2023-05-20T23:10:05;14.20;99.90
